sensor_id;sensor_type;location;lat;lon;timestamp;P1;durP1;ratioP1;P2;durP2;ratioP2
7253;SDS011;4060;49.186;9.226;2023-10-19T00:00:13;5.40;;;4.90;;
7253;SDS011;4060;49.186;9.226;2023-10-19T00:02:51;5.57;;;5.07;;
7253;SDS011;4060;49.186;9.226;2023-10-19T00:05:21;6.40;;;5.82;;
7253;SDS011;4060;49.186;9.226;2023-10-19T00:07:53;6.35;;;5.85;;
7253;SDS011;4060;49.186;9.226;2023-10-19T00:10:23;5.57;;;5.07;;
7253;SDS011;4060;49.186;9.226;2023-10-19T00:12:56;6.57;;;5.90;;
7253;SDS011;4060;49.186;9.226;2023-10-19T00:15:26;6.00;;;5.47;;
7253;SDS011;4060;49.186;9.226;2023-10-19T00:17:59;5.47;;;4.97;;
7253;SDS011;4060;49.186;9.226;2023-10-19T00:20:40;6.07;;;5.57;;
7253;SDS011;4060;49.186;9.226;2023-10-19T00:23:18;6.60;;;6.00;;
7253;SDS011;4060;49.186;9.226;2023-10-19T00:25:55;7.50;;;6.80;;
7253;SDS011;4060;49.186;9.226;2023-10-19T00:28:24;6.68;;;6.07;;
7253;SDS011;4060;49.186;9.226;2023-10-19T00:30:53;7.95;;;6.75;;
7253;SDS011;4060;49.186;9.226;2023-10-19T00:33:32;6.50;;;5.90;;
7253;SDS011;4060;49.186;9.226;2023-10-19T00:36:05;7.18;;;6.32;;
7253;SDS011;4060;49.186;9.226;2023-10-19T00:38:37;8.27;;;7.40;;
7253;SDS011;4060;49.186;9.226;2023-10-19T00:41:14;8.20;;;7.25;;
7253;SDS011;4060;49.186;9.226;2023-10-19T00:43:50;6.28;;;5.68;;
7253;SDS011;4060;49.186;9.226;2023-10-19T00:46:25;6.95;;;6.35;;
7253;SDS011;4060;49.186;9.226;2023-10-19T00:49:07;6.63;;;6.03;;
7253;SDS011;4060;49.186;9.226;2023-10-19T00:51:40;6.60;;;6.00;;
7253;SDS011;4060;49.186;9.226;2023-10-19T00:54:22;6.10;;;5.50;;
7253;SDS011;4060;49.186;9.226;2023-10-19T00:56:58;7.43;;;6.72;;
7253;SDS011;4060;49.186;9.226;2023-10-19T00:59:33;7.10;;;6.20;;
7253;SDS011;4060;49.186;9.226;2023-10-19T01:02:09;7.63;;;6.60;;
7253;SDS011;4060;49.186;9.226;2023-10-19T01:04:48;6.38;;;5.78;;
7253;SDS011;4060;49.186;9.226;2023-10-19T01:07:22;7.18;;;6.53;;
7253;SDS011;4060;49.186;9.226;2023-10-19T01:09:56;6.68;;;6.07;;
7253;SDS011;4060;49.186;9.226;2023-10-19T01:12:26;6.35;;;5.70;;
7253;SDS011;4060;49.186;9.226;2023-10-19T01:15:09;6.43;;;5.82;;
7253;SDS011;4060;49.186;9.226;2023-10-19T01:17:43;6.72;;;6.10;;
7253;SDS011;4060;49.186;9.226;2023-10-19T01:20:24;6.28;;;5.68;;
7253;SDS011;4060;49.186;9.226;2023-10-19T01:23:16;5.75;;;5.15;;
7253;SDS011;4060;49.186;9.226;2023-10-19T01:25:53;6.30;;;5.70;;
7253;SDS011;4060;49.186;9.226;2023-10-19T01:28:32;6.60;;;5.88;;
7253;SDS011;4060;49.186;9.226;2023-10-19T01:31:14;5.78;;;5.28;;
7253;SDS011;4060;49.186;9.226;2023-10-19T01:33:49;6.40;;;5.80;;
7253;SDS011;4060;49.186;9.226;2023-10-19T01:36:21;7.30;;;6.38;;
7253;SDS011;4060;49.186;9.226;2023-10-19T01:38:57;6.65;;;6.05;;
7253;SDS011;4060;49.186;9.226;2023-10-19T01:41:27;7.22;;;6.53;;
7253;SDS011;4060;49.186;9.226;2023-10-19T01:43:59;6.68;;;6.07;;
7253;SDS011;4060;49.186;9.226;2023-10-19T01:46:30;6.80;;;6.20;;
7253;SDS011;4060;49.186;9.226;2023-10-19T01:49:01;7.63;;;6.93;;
7253;SDS011;4060;49.186;9.226;2023-10-19T01:51:30;6.75;;;6.15;;
7253;SDS011;4060;49.186;9.226;2023-10-19T01:54:06;7.53;;;6.05;;
7253;SDS011;4060;49.186;9.226;2023-10-19T01:56:35;7.00;;;6.40;;
7253;SDS011;4060;49.186;9.226;2023-10-19T01:59:08;6.70;;;6.10;;
7253;SDS011;4060;49.186;9.226;2023-10-19T02:01:42;7.68;;;6.88;;
7253;SDS011;4060;49.186;9.226;2023-10-19T02:04:11;7.10;;;6.40;;
7253;SDS011;4060;49.186;9.226;2023-10-19T02:06:41;6.85;;;6.00;;
7253;SDS011;4060;49.186;9.226;2023-10-19T02:09:14;6.97;;;6.35;;
7253;SDS011;4060;49.186;9.226;2023-10-19T02:11:50;7.53;;;6.75;;
7253;SDS011;4060;49.186;9.226;2023-10-19T02:14:19;7.10;;;6.50;;
7253;SDS011;4060;49.186;9.226;2023-10-19T02:16:51;7.50;;;6.80;;
7253;SDS011;4060;49.186;9.226;2023-10-19T02:19:22;8.10;;;7.40;;
7253;SDS011;4060;49.186;9.226;2023-10-19T02:21:53;9.32;;;8.43;;
7253;SDS011;4060;49.186;9.226;2023-10-19T02:24:24;7.95;;;7.15;;
7253;SDS011;4060;49.186;9.226;2023-10-19T02:26:54;8.57;;;7.72;;
7253;SDS011;4060;49.186;9.226;2023-10-19T02:29:23;10.10;;;9.13;;
7253;SDS011;4060;49.186;9.226;2023-10-19T02:31:54;7.50;;;6.90;;
7253;SDS011;4060;49.186;9.226;2023-10-19T02:34:23;8.63;;;7.75;;
7253;SDS011;4060;49.186;9.226;2023-10-19T02:36:53;8.13;;;7.43;;
7253;SDS011;4060;49.186;9.226;2023-10-19T02:39:24;8.20;;;7.40;;
7253;SDS011;4060;49.186;9.226;2023-10-19T02:41:54;7.38;;;6.68;;
7253;SDS011;4060;49.186;9.226;2023-10-19T02:44:22;8.38;;;7.57;;
7253;SDS011;4060;49.186;9.226;2023-10-19T02:46:52;8.55;;;7.75;;
7253;SDS011;4060;49.186;9.226;2023-10-19T02:49:24;6.93;;;6.32;;
7253;SDS011;4060;49.186;9.226;2023-10-19T02:51:56;8.75;;;6.93;;
7253;SDS011;4060;49.186;9.226;2023-10-19T02:54:32;7.50;;;6.68;;
7253;SDS011;4060;49.186;9.226;2023-10-19T02:57:02;7.28;;;6.60;;
7253;SDS011;4060;49.186;9.226;2023-10-19T02:59:33;9.20;;;7.13;;
7253;SDS011;4060;49.186;9.226;2023-10-19T03:02:02;7.68;;;6.97;;
7253;SDS011;4060;49.186;9.226;2023-10-19T03:04:43;7.05;;;6.40;;
7253;SDS011;4060;49.186;9.226;2023-10-19T03:07:13;6.50;;;5.80;;
7253;SDS011;4060;49.186;9.226;2023-10-19T03:09:43;6.60;;;5.82;;
7253;SDS011;4060;49.186;9.226;2023-10-19T03:12:20;7.25;;;6.60;;
7253;SDS011;4060;49.186;9.226;2023-10-19T03:14:52;6.07;;;5.57;;
7253;SDS011;4060;49.186;9.226;2023-10-19T03:17:21;7.05;;;6.22;;
7253;SDS011;4060;49.186;9.226;2023-10-19T03:19:51;6.07;;;5.53;;
7253;SDS011;4060;49.186;9.226;2023-10-19T03:22:19;6.80;;;6.07;;
7253;SDS011;4060;49.186;9.226;2023-10-19T03:24:51;6.50;;;5.68;;
7253;SDS011;4060;49.186;9.226;2023-10-19T03:27:38;5.63;;;5.13;;
7253;SDS011;4060;49.186;9.226;2023-10-19T03:30:10;5.80;;;5.30;;
7253;SDS011;4060;49.186;9.226;2023-10-19T03:32:42;5.80;;;5.35;;
7253;SDS011;4060;49.186;9.226;2023-10-19T03:35:11;5.90;;;5.40;;
7253;SDS011;4060;49.186;9.226;2023-10-19T03:37:41;5.20;;;4.70;;
7253;SDS011;4060;49.186;9.226;2023-10-19T03:40:16;5.13;;;4.72;;
7253;SDS011;4060;49.186;9.226;2023-10-19T03:42:54;5.25;;;4.85;;
7253;SDS011;4060;49.186;9.226;2023-10-19T03:45:24;4.53;;;4.13;;
7253;SDS011;4060;49.186;9.226;2023-10-19T03:47:59;5.00;;;4.60;;
7253;SDS011;4060;49.186;9.226;2023-10-19T03:50:35;7.13;;;5.53;;
7253;SDS011;4060;49.186;9.226;2023-10-19T03:53:05;6.28;;;5.60;;
7253;SDS011;4060;49.186;9.226;2023-10-19T03:55:40;5.68;;;5.20;;
7253;SDS011;4060;49.186;9.226;2023-10-19T03:58:10;5.65;;;5.15;;
7253;SDS011;4060;49.186;9.226;2023-10-19T04:00:41;5.20;;;4.80;;
7253;SDS011;4060;49.186;9.226;2023-10-19T04:03:10;5.43;;;4.95;;
7253;SDS011;4060;49.186;9.226;2023-10-19T04:05:39;6.15;;;5.32;;
7253;SDS011;4060;49.186;9.226;2023-10-19T04:08:13;5.45;;;4.95;;
7253;SDS011;4060;49.186;9.226;2023-10-19T04:10:49;4.93;;;4.47;;
7253;SDS011;4060;49.186;9.226;2023-10-19T04:13:32;5.70;;;5.20;;
7253;SDS011;4060;49.186;9.226;2023-10-19T04:16:02;6.28;;;5.68;;
7253;SDS011;4060;49.186;9.226;2023-10-19T04:18:35;6.20;;;5.60;;
7253;SDS011;4060;49.186;9.226;2023-10-19T04:21:10;6.45;;;5.85;;
7253;SDS011;4060;49.186;9.226;2023-10-19T04:23:40;5.95;;;5.45;;
7253;SDS011;4060;49.186;9.226;2023-10-19T04:26:14;5.82;;;5.22;;
7253;SDS011;4060;49.186;9.226;2023-10-19T04:28:44;6.70;;;6.10;;
7253;SDS011;4060;49.186;9.226;2023-10-19T04:31:17;5.78;;;5.28;;
7253;SDS011;4060;49.186;9.226;2023-10-19T04:33:49;6.80;;;6.07;;
7253;SDS011;4060;49.186;9.226;2023-10-19T04:36:20;6.53;;;5.93;;
7253;SDS011;4060;49.186;9.226;2023-10-19T04:38:51;6.55;;;5.95;;
7253;SDS011;4060;49.186;9.226;2023-10-19T04:41:23;7.10;;;6.50;;
7253;SDS011;4060;49.186;9.226;2023-10-19T04:43:55;6.22;;;5.70;;
7253;SDS011;4060;49.186;9.226;2023-10-19T04:46:26;6.85;;;6.15;;
7253;SDS011;4060;49.186;9.226;2023-10-19T04:48:56;6.47;;;5.88;;
7253;SDS011;4060;49.186;9.226;2023-10-19T04:51:26;6.20;;;5.60;;
7253;SDS011;4060;49.186;9.226;2023-10-19T04:53:56;6.78;;;6.18;;
7253;SDS011;4060;49.186;9.226;2023-10-19T04:56:28;6.60;;;5.70;;
7253;SDS011;4060;49.186;9.226;2023-10-19T04:58:59;6.78;;;6.18;;
7253;SDS011;4060;49.186;9.226;2023-10-19T05:01:30;6.60;;;5.90;;
7253;SDS011;4060;49.186;9.226;2023-10-19T05:04:00;6.20;;;5.60;;
7253;SDS011;4060;49.186;9.226;2023-10-19T05:06:30;5.68;;;5.18;;
7253;SDS011;4060;49.186;9.226;2023-10-19T05:08:59;6.10;;;5.60;;
7253;SDS011;4060;49.186;9.226;2023-10-19T05:11:31;6.57;;;5.97;;
7253;SDS011;4060;49.186;9.226;2023-10-19T05:14:02;6.40;;;5.80;;
7253;SDS011;4060;49.186;9.226;2023-10-19T05:16:32;6.10;;;5.55;;
7253;SDS011;4060;49.186;9.226;2023-10-19T05:19:02;6.20;;;5.60;;
7253;SDS011;4060;49.186;9.226;2023-10-19T05:21:32;6.50;;;5.90;;
7253;SDS011;4060;49.186;9.226;2023-10-19T05:24:02;6.63;;;6.07;;
7253;SDS011;4060;49.186;9.226;2023-10-19T05:26:35;6.57;;;5.97;;
7253;SDS011;4060;49.186;9.226;2023-10-19T05:29:04;5.80;;;5.18;;
7253;SDS011;4060;49.186;9.226;2023-10-19T05:31:39;7.15;;;6.53;;
7253;SDS011;4060;49.186;9.226;2023-10-19T05:34:09;6.70;;;6.10;;
7253;SDS011;4060;49.186;9.226;2023-10-19T05:36:38;6.53;;;5.93;;
7253;SDS011;4060;49.186;9.226;2023-10-19T05:39:13;6.68;;;6.07;;
7253;SDS011;4060;49.186;9.226;2023-10-19T05:41:45;6.65;;;6.13;;
7253;SDS011;4060;49.186;9.226;2023-10-19T05:44:15;6.88;;;6.28;;
7253;SDS011;4060;49.186;9.226;2023-10-19T05:46:45;5.97;;;5.47;;
7253;SDS011;4060;49.186;9.226;2023-10-19T05:49:15;6.60;;;6.10;;
7253;SDS011;4060;49.186;9.226;2023-10-19T05:51:46;6.95;;;6.28;;
7253;SDS011;4060;49.186;9.226;2023-10-19T05:54:16;6.30;;;5.80;;
7253;SDS011;4060;49.186;9.226;2023-10-19T05:56:47;7.25;;;6.65;;
7253;SDS011;4060;49.186;9.226;2023-10-19T05:59:19;6.20;;;5.60;;
7253;SDS011;4060;49.186;9.226;2023-10-19T06:01:52;6.18;;;5.68;;
7253;SDS011;4060;49.186;9.226;2023-10-19T06:04:22;6.25;;;5.65;;
7253;SDS011;4060;49.186;9.226;2023-10-19T06:06:52;7.07;;;6.47;;
7253;SDS011;4060;49.186;9.226;2023-10-19T06:09:22;6.57;;;5.97;;
7253;SDS011;4060;49.186;9.226;2023-10-19T06:11:58;6.75;;;6.15;;
7253;SDS011;4060;49.186;9.226;2023-10-19T06:14:27;6.03;;;5.53;;
7253;SDS011;4060;49.186;9.226;2023-10-19T06:16:57;6.80;;;6.20;;
7253;SDS011;4060;49.186;9.226;2023-10-19T06:19:27;6.07;;;5.57;;
7253;SDS011;4060;49.186;9.226;2023-10-19T06:21:57;5.97;;;5.47;;
7253;SDS011;4060;49.186;9.226;2023-10-19T06:24:27;6.43;;;5.82;;
7253;SDS011;4060;49.186;9.226;2023-10-19T06:26:58;6.30;;;5.70;;
7253;SDS011;4060;49.186;9.226;2023-10-19T06:29:30;6.30;;;5.72;;
7253;SDS011;4060;49.186;9.226;2023-10-19T06:31:59;6.53;;;5.93;;
7253;SDS011;4060;49.186;9.226;2023-10-19T06:34:29;6.38;;;5.80;;
7253;SDS011;4060;49.186;9.226;2023-10-19T06:36:59;6.13;;;5.63;;
7253;SDS011;4060;49.186;9.226;2023-10-19T06:39:30;5.75;;;5.25;;
7253;SDS011;4060;49.186;9.226;2023-10-19T06:42:01;6.22;;;5.72;;
7253;SDS011;4060;49.186;9.226;2023-10-19T06:44:31;6.13;;;5.32;;
7253;SDS011;4060;49.186;9.226;2023-10-19T06:47:02;6.25;;;5.65;;
7253;SDS011;4060;49.186;9.226;2023-10-19T06:49:33;5.32;;;4.93;;
7253;SDS011;4060;49.186;9.226;2023-10-19T06:52:03;6.28;;;5.68;;
7253;SDS011;4060;49.186;9.226;2023-10-19T06:54:32;6.32;;;5.80;;
7253;SDS011;4060;49.186;9.226;2023-10-19T06:57:04;7.50;;;6.60;;
7253;SDS011;4060;49.186;9.226;2023-10-19T06:59:35;7.38;;;6.78;;
7253;SDS011;4060;49.186;9.226;2023-10-19T07:02:05;7.75;;;7.03;;
7253;SDS011;4060;49.186;9.226;2023-10-19T07:04:39;7.95;;;7.25;;
7253;SDS011;4060;49.186;9.226;2023-10-19T07:07:09;7.13;;;6.53;;
7253;SDS011;4060;49.186;9.226;2023-10-19T07:09:39;8.10;;;7.40;;
7253;SDS011;4060;49.186;9.226;2023-10-19T07:12:11;7.65;;;6.95;;
7253;SDS011;4060;49.186;9.226;2023-10-19T07:14:41;8.30;;;7.22;;
7253;SDS011;4060;49.186;9.226;2023-10-19T07:17:10;7.88;;;6.72;;
7253;SDS011;4060;49.186;9.226;2023-10-19T07:19:42;7.68;;;6.97;;
7253;SDS011;4060;49.186;9.226;2023-10-19T07:22:15;7.85;;;7.18;;
7253;SDS011;4060;49.186;9.226;2023-10-19T07:24:49;7.97;;;7.28;;
7253;SDS011;4060;49.186;9.226;2023-10-19T07:27:22;8.15;;;7.47;;
7253;SDS011;4060;49.186;9.226;2023-10-19T07:29:54;7.90;;;7.20;;
7253;SDS011;4060;49.186;9.226;2023-10-19T07:32:25;8.02;;;7.22;;
7253;SDS011;4060;49.186;9.226;2023-10-19T07:34:56;7.60;;;6.90;;
7253;SDS011;4060;49.186;9.226;2023-10-19T07:37:26;7.63;;;6.93;;
7253;SDS011;4060;49.186;9.226;2023-10-19T07:39:56;6.88;;;6.30;;
7253;SDS011;4060;49.186;9.226;2023-10-19T07:42:27;6.53;;;6.03;;
7253;SDS011;4060;49.186;9.226;2023-10-19T07:44:58;6.55;;;6.05;;
7253;SDS011;4060;49.186;9.226;2023-10-19T07:47:28;7.15;;;6.45;;
7253;SDS011;4060;49.186;9.226;2023-10-19T07:49:58;7.50;;;6.80;;
7253;SDS011;4060;49.186;9.226;2023-10-19T07:52:29;6.53;;;5.95;;
7253;SDS011;4060;49.186;9.226;2023-10-19T07:55:02;7.68;;;6.82;;
7253;SDS011;4060;49.186;9.226;2023-10-19T07:57:35;6.60;;;6.10;;
7253;SDS011;4060;49.186;9.226;2023-10-19T08:00:08;6.90;;;6.30;;
7253;SDS011;4060;49.186;9.226;2023-10-19T08:02:41;8.57;;;6.32;;
7253;SDS011;4060;49.186;9.226;2023-10-19T08:05:12;6.95;;;6.35;;
7253;SDS011;4060;49.186;9.226;2023-10-19T08:07:42;7.45;;;6.75;;
7253;SDS011;4060;49.186;9.226;2023-10-19T08:10:13;7.70;;;7.00;;
7253;SDS011;4060;49.186;9.226;2023-10-19T08:12:46;6.63;;;6.07;;
7253;SDS011;4060;49.186;9.226;2023-10-19T08:15:18;7.22;;;6.53;;
7253;SDS011;4060;49.186;9.226;2023-10-19T08:17:49;7.38;;;6.78;;
7253;SDS011;4060;49.186;9.226;2023-10-19T08:20:21;7.00;;;6.40;;
7253;SDS011;4060;49.186;9.226;2023-10-19T08:22:54;7.07;;;6.38;;
7253;SDS011;4060;49.186;9.226;2023-10-19T08:25:24;6.47;;;5.93;;
7253;SDS011;4060;49.186;9.226;2023-10-19T08:27:57;6.88;;;6.28;;
7253;SDS011;4060;49.186;9.226;2023-10-19T08:30:27;6.70;;;6.20;;
7253;SDS011;4060;49.186;9.226;2023-10-19T08:32:57;7.55;;;6.78;;
7253;SDS011;4060;49.186;9.226;2023-10-19T08:35:28;6.43;;;5.82;;
7253;SDS011;4060;49.186;9.226;2023-10-19T08:37:57;7.03;;;6.43;;
7253;SDS011;4060;49.186;9.226;2023-10-19T08:40:30;5.97;;;5.55;;
7253;SDS011;4060;49.186;9.226;2023-10-19T08:43:01;6.50;;;5.93;;
7253;SDS011;4060;49.186;9.226;2023-10-19T08:45:34;6.53;;;5.93;;
7253;SDS011;4060;49.186;9.226;2023-10-19T08:48:04;6.70;;;6.10;;
7253;SDS011;4060;49.186;9.226;2023-10-19T08:50:35;6.90;;;6.07;;
7253;SDS011;4060;49.186;9.226;2023-10-19T08:53:06;6.57;;;5.97;;
7253;SDS011;4060;49.186;9.226;2023-10-19T08:55:37;6.18;;;5.68;;
7253;SDS011;4060;49.186;9.226;2023-10-19T08:58:10;6.40;;;5.57;;
7253;SDS011;4060;49.186;9.226;2023-10-19T09:00:44;5.65;;;5.22;;
7253;SDS011;4060;49.186;9.226;2023-10-19T09:03:20;5.93;;;5.30;;
7253;SDS011;4060;49.186;9.226;2023-10-19T09:05:51;6.30;;;5.80;;
7253;SDS011;4060;49.186;9.226;2023-10-19T09:08:20;6.18;;;5.60;;
7253;SDS011;4060;49.186;9.226;2023-10-19T09:10:50;6.07;;;5.55;;
7253;SDS011;4060;49.186;9.226;2023-10-19T09:13:25;5.32;;;4.93;;
7253;SDS011;4060;49.186;9.226;2023-10-19T09:15:59;5.78;;;5.28;;
7253;SDS011;4060;49.186;9.226;2023-10-19T09:18:36;5.63;;;5.22;;
7253;SDS011;4060;49.186;9.226;2023-10-19T09:21:06;8.55;;;6.63;;
7253;SDS011;4060;49.186;9.226;2023-10-19T09:23:37;5.40;;;4.90;;
7253;SDS011;4060;49.186;9.226;2023-10-19T09:26:08;5.72;;;5.22;;
7253;SDS011;4060;49.186;9.226;2023-10-19T09:28:42;5.35;;;4.95;;
7253;SDS011;4060;49.186;9.226;2023-10-19T09:31:17;5.25;;;4.85;;
7253;SDS011;4060;49.186;9.226;2023-10-19T09:33:48;5.47;;;5.00;;
7253;SDS011;4060;49.186;9.226;2023-10-19T09:36:19;6.18;;;5.35;;
7253;SDS011;4060;49.186;9.226;2023-10-19T09:38:52;5.95;;;5.43;;
7253;SDS011;4060;49.186;9.226;2023-10-19T09:41:24;5.47;;;5.07;;
7253;SDS011;4060;49.186;9.226;2023-10-19T09:44:01;6.15;;;5.63;;
7253;SDS011;4060;49.186;9.226;2023-10-19T09:46:37;5.75;;;5.25;;
7253;SDS011;4060;49.186;9.226;2023-10-19T09:49:11;6.47;;;5.88;;
7253;SDS011;4060;49.186;9.226;2023-10-19T09:51:41;6.05;;;5.45;;
7253;SDS011;4060;49.186;9.226;2023-10-19T09:54:17;6.65;;;5.95;;
7253;SDS011;4060;49.186;9.226;2023-10-19T09:57:02;5.50;;;5.10;;
7253;SDS011;4060;49.186;9.226;2023-10-19T09:59:46;4.85;;;4.45;;
7253;SDS011;4060;49.186;9.226;2023-10-19T10:02:24;5.28;;;4.88;;
7253;SDS011;4060;49.186;9.226;2023-10-19T10:04:56;5.28;;;4.88;;
7253;SDS011;4060;49.186;9.226;2023-10-19T10:07:26;5.20;;;4.68;;
7253;SDS011;4060;49.186;9.226;2023-10-19T10:09:56;4.78;;;4.35;;
7253;SDS011;4060;49.186;9.226;2023-10-19T10:12:25;5.38;;;4.90;;
7253;SDS011;4060;49.186;9.226;2023-10-19T10:14:59;4.97;;;4.57;;
7253;SDS011;4060;49.186;9.226;2023-10-19T10:17:34;5.05;;;4.55;;
7253;SDS011;4060;49.186;9.226;2023-10-19T10:23:17;4.95;;;4.55;;
7253;SDS011;4060;49.186;9.226;2023-10-19T10:25:50;5.20;;;4.70;;
7253;SDS011;4060;49.186;9.226;2023-10-19T10:28:23;4.60;;;4.20;;
7253;SDS011;4060;49.186;9.226;2023-10-19T10:31:13;6.45;;;4.75;;
7253;SDS011;4060;49.186;9.226;2023-10-19T10:33:48;5.55;;;4.72;;
7253;SDS011;4060;49.186;9.226;2023-10-19T10:36:20;4.90;;;4.50;;
7253;SDS011;4060;49.186;9.226;2023-10-19T10:38:53;5.05;;;4.60;;
7253;SDS011;4060;49.186;9.226;2023-10-19T10:41:43;5.03;;;4.50;;
7253;SDS011;4060;49.186;9.226;2023-10-19T10:44:13;5.05;;;4.65;;
7253;SDS011;4060;49.186;9.226;2023-10-19T10:46:47;4.68;;;4.28;;
7253;SDS011;4060;49.186;9.226;2023-10-19T10:49:17;4.50;;;4.05;;
7253;SDS011;4060;49.186;9.226;2023-10-19T10:51:47;4.90;;;4.50;;
7253;SDS011;4060;49.186;9.226;2023-10-19T10:54:20;5.45;;;4.90;;
7253;SDS011;4060;49.186;9.226;2023-10-19T10:56:51;5.05;;;4.65;;
7253;SDS011;4060;49.186;9.226;2023-10-19T10:59:21;4.88;;;4.47;;
7253;SDS011;4060;49.186;9.226;2023-10-19T11:01:54;4.38;;;4.03;;
7253;SDS011;4060;49.186;9.226;2023-10-19T11:04:23;4.93;;;4.43;;
7253;SDS011;4060;49.186;9.226;2023-10-19T11:06:53;5.55;;;5.15;;
7253;SDS011;4060;49.186;9.226;2023-10-19T11:09:23;5.03;;;4.57;;
7253;SDS011;4060;49.186;9.226;2023-10-19T11:11:54;5.10;;;4.60;;
7253;SDS011;4060;49.186;9.226;2023-10-19T11:14:24;5.07;;;4.60;;
7253;SDS011;4060;49.186;9.226;2023-10-19T11:16:57;5.00;;;4.60;;
7253;SDS011;4060;49.186;9.226;2023-10-19T11:19:41;4.97;;;4.43;;
7253;SDS011;4060;49.186;9.226;2023-10-19T11:22:11;4.90;;;4.50;;
7253;SDS011;4060;49.186;9.226;2023-10-19T11:24:41;5.85;;;4.65;;
7253;SDS011;4060;49.186;9.226;2023-10-19T11:27:11;6.18;;;4.53;;
7253;SDS011;4060;49.186;9.226;2023-10-19T11:29:53;6.22;;;4.72;;
7253;SDS011;4060;49.186;9.226;2023-10-19T11:32:26;5.95;;;4.90;;
7253;SDS011;4060;49.186;9.226;2023-10-19T11:35:06;5.43;;;4.90;;
7253;SDS011;4060;49.186;9.226;2023-10-19T11:37:46;6.07;;;5.43;;
7253;SDS011;4060;49.186;9.226;2023-10-19T11:40:16;5.13;;;4.53;;
7253;SDS011;4060;49.186;9.226;2023-10-19T11:42:47;5.38;;;4.88;;
7253;SDS011;4060;49.186;9.226;2023-10-19T11:45:17;5.95;;;5.45;;
7253;SDS011;4060;49.186;9.226;2023-10-19T11:47:49;7.60;;;5.85;;
7253;SDS011;4060;49.186;9.226;2023-10-19T11:50:19;7.10;;;6.50;;
7253;SDS011;4060;49.186;9.226;2023-10-19T11:52:49;6.93;;;6.22;;
7253;SDS011;4060;49.186;9.226;2023-10-19T11:55:18;6.43;;;5.60;;
7253;SDS011;4060;49.186;9.226;2023-10-19T11:57:48;5.70;;;5.20;;
7253;SDS011;4060;49.186;9.226;2023-10-19T12:00:18;6.25;;;5.65;;
7253;SDS011;4060;49.186;9.226;2023-10-19T12:02:53;6.60;;;6.00;;
7253;SDS011;4060;49.186;9.226;2023-10-19T12:05:23;6.32;;;5.72;;
7253;SDS011;4060;49.186;9.226;2023-10-19T12:07:53;6.88;;;6.28;;
7253;SDS011;4060;49.186;9.226;2023-10-19T12:10:22;6.55;;;5.85;;
7253;SDS011;4060;49.186;9.226;2023-10-19T12:12:54;9.38;;;6.68;;
7253;SDS011;4060;49.186;9.226;2023-10-19T12:15:24;8.40;;;6.63;;
7253;SDS011;4060;49.186;9.226;2023-10-19T12:17:56;7.72;;;5.75;;
7253;SDS011;4060;49.186;9.226;2023-10-19T12:20:29;6.53;;;5.82;;
7253;SDS011;4060;49.186;9.226;2023-10-19T12:23:01;5.95;;;5.38;;
7253;SDS011;4060;49.186;9.226;2023-10-19T12:25:31;6.40;;;5.57;;
7253;SDS011;4060;49.186;9.226;2023-10-19T12:28:01;7.20;;;6.03;;
7253;SDS011;4060;49.186;9.226;2023-10-19T12:30:31;6.60;;;5.82;;
7253;SDS011;4060;49.186;9.226;2023-10-19T12:33:04;6.05;;;5.45;;
7253;SDS011;4060;49.186;9.226;2023-10-19T12:35:37;5.55;;;5.05;;
7253;SDS011;4060;49.186;9.226;2023-10-19T12:38:15;5.38;;;4.88;;
7253;SDS011;4060;49.186;9.226;2023-10-19T12:40:46;6.38;;;4.75;;
7253;SDS011;4060;49.186;9.226;2023-10-19T12:43:17;5.78;;;4.72;;
7253;SDS011;4060;49.186;9.226;2023-10-19T12:45:48;4.85;;;4.25;;
7253;SDS011;4060;49.186;9.226;2023-10-19T12:48:26;6.47;;;4.88;;
7253;SDS011;4060;49.186;9.226;2023-10-19T12:50:59;4.15;;;3.75;;
7253;SDS011;4060;49.186;9.226;2023-10-19T12:53:30;4.50;;;4.10;;
7253;SDS011;4060;49.186;9.226;2023-10-19T12:55:59;4.85;;;4.35;;
7253;SDS011;4060;49.186;9.226;2023-10-19T12:58:29;5.03;;;4.03;;
7253;SDS011;4060;49.186;9.226;2023-10-19T13:00:58;5.57;;;3.65;;
7253;SDS011;4060;49.186;9.226;2023-10-19T13:03:33;3.63;;;3.33;;
7253;SDS011;4060;49.186;9.226;2023-10-19T13:06:04;4.25;;;3.85;;
7253;SDS011;4060;49.186;9.226;2023-10-19T13:08:34;3.83;;;3.17;;
7253;SDS011;4060;49.186;9.226;2023-10-19T13:11:04;3.47;;;3.17;;
7253;SDS011;4060;49.186;9.226;2023-10-19T13:13:33;3.50;;;3.20;;
7253;SDS011;4060;49.186;9.226;2023-10-19T13:16:04;5.60;;;4.13;;
7253;SDS011;4060;49.186;9.226;2023-10-19T13:18:37;9.93;;;8.68;;
7253;SDS011;4060;49.186;9.226;2023-10-19T13:21:07;7.68;;;6.63;;
7253;SDS011;4060;49.186;9.226;2023-10-19T13:23:37;8.68;;;7.13;;
7253;SDS011;4060;49.186;9.226;2023-10-19T13:26:06;8.38;;;7.43;;
7253;SDS011;4060;49.186;9.226;2023-10-19T13:28:45;6.85;;;5.65;;
7253;SDS011;4060;49.186;9.226;2023-10-19T13:31:16;5.82;;;5.20;;
7253;SDS011;4060;49.186;9.226;2023-10-19T13:33:49;5.88;;;5.05;;
7253;SDS011;4060;49.186;9.226;2023-10-19T13:36:20;4.40;;;3.97;;
7253;SDS011;4060;49.186;9.226;2023-10-19T13:38:51;4.60;;;4.07;;
7253;SDS011;4060;49.186;9.226;2023-10-19T13:41:21;5.22;;;4.18;;
7253;SDS011;4060;49.186;9.226;2023-10-19T13:43:51;4.38;;;3.97;;
7253;SDS011;4060;49.186;9.226;2023-10-19T13:46:21;8.35;;;6.00;;
7253;SDS011;4060;49.186;9.226;2023-10-19T13:48:53;5.65;;;5.05;;
7253;SDS011;4060;49.186;9.226;2023-10-19T13:51:22;5.50;;;4.30;;
7253;SDS011;4060;49.186;9.226;2023-10-19T13:53:52;5.18;;;3.75;;
7253;SDS011;4060;49.186;9.226;2023-10-19T13:56:22;3.45;;;3.15;;
7253;SDS011;4060;49.186;9.226;2023-10-19T13:58:52;4.28;;;3.88;;
7253;SDS011;4060;49.186;9.226;2023-10-19T14:01:22;3.80;;;3.40;;
7253;SDS011;4060;49.186;9.226;2023-10-19T14:03:55;3.40;;;3.17;;
7253;SDS011;4060;49.186;9.226;2023-10-19T14:06:25;4.07;;;3.70;;
7253;SDS011;4060;49.186;9.226;2023-10-19T14:08:55;3.78;;;3.40;;
7253;SDS011;4060;49.186;9.226;2023-10-19T14:11:25;3.45;;;3.15;;
7253;SDS011;4060;49.186;9.226;2023-10-19T14:13:55;4.00;;;3.40;;
7253;SDS011;4060;49.186;9.226;2023-10-19T14:16:25;3.80;;;3.50;;
7253;SDS011;4060;49.186;9.226;2023-10-19T14:18:57;3.67;;;3.25;;
7253;SDS011;4060;49.186;9.226;2023-10-19T14:21:26;3.35;;;3.05;;
7253;SDS011;4060;49.186;9.226;2023-10-19T14:23:56;4.38;;;3.00;;
7253;SDS011;4060;49.186;9.226;2023-10-19T14:26:25;3.50;;;3.20;;
7253;SDS011;4060;49.186;9.226;2023-10-19T14:28:56;3.22;;;2.92;;
7253;SDS011;4060;49.186;9.226;2023-10-19T14:31:26;2.97;;;2.65;;
7253;SDS011;4060;49.186;9.226;2023-10-19T14:33:57;3.50;;;2.80;;
7253;SDS011;4060;49.186;9.226;2023-10-19T14:36:27;3.10;;;2.80;;
7253;SDS011;4060;49.186;9.226;2023-10-19T14:38:58;2.75;;;2.45;;
7253;SDS011;4060;49.186;9.226;2023-10-19T14:41:27;2.70;;;2.50;;
7253;SDS011;4060;49.186;9.226;2023-10-19T14:43:57;3.20;;;2.53;;
7253;SDS011;4060;49.186;9.226;2023-10-19T14:46:29;2.70;;;2.50;;
7253;SDS011;4060;49.186;9.226;2023-10-19T14:49:01;2.80;;;2.58;;
7253;SDS011;4060;49.186;9.226;2023-10-19T14:51:30;2.83;;;2.60;;
7253;SDS011;4060;49.186;9.226;2023-10-19T14:54:00;2.65;;;2.45;;
7253;SDS011;4060;49.186;9.226;2023-10-19T14:56:30;2.45;;;2.25;;
7253;SDS011;4060;49.186;9.226;2023-10-19T14:58:59;2.80;;;2.50;;
7253;SDS011;4060;49.186;9.226;2023-10-19T15:01:31;2.90;;;2.70;;
7253;SDS011;4060;49.186;9.226;2023-10-19T15:04:04;2.40;;;2.20;;
7253;SDS011;4060;49.186;9.226;2023-10-19T15:06:35;4.05;;;2.30;;
7253;SDS011;4060;49.186;9.226;2023-10-19T15:09:04;2.45;;;2.08;;
7253;SDS011;4060;49.186;9.226;2023-10-19T15:11:41;2.85;;;2.35;;
7253;SDS011;4060;49.186;9.226;2023-10-19T15:14:12;3.72;;;2.53;;
7253;SDS011;4060;49.186;9.226;2023-10-19T15:16:42;4.45;;;2.92;;
7253;SDS011;4060;49.186;9.226;2023-10-19T15:19:14;4.85;;;3.42;;
7253;SDS011;4060;49.186;9.226;2023-10-19T15:21:44;2.95;;;2.47;;
7253;SDS011;4060;49.186;9.226;2023-10-19T15:24:14;2.92;;;2.55;;
7253;SDS011;4060;49.186;9.226;2023-10-19T15:26:44;2.55;;;2.25;;
7253;SDS011;4060;49.186;9.226;2023-10-19T15:29:16;3.17;;;2.45;;
7253;SDS011;4060;49.186;9.226;2023-10-19T15:31:45;2.60;;;2.40;;
7253;SDS011;4060;49.186;9.226;2023-10-19T15:34:17;3.63;;;2.58;;
7253;SDS011;4060;49.186;9.226;2023-10-19T15:36:47;2.28;;;2.10;;
7253;SDS011;4060;49.186;9.226;2023-10-19T15:39:17;2.88;;;2.20;;
7253;SDS011;4060;49.186;9.226;2023-10-19T15:41:49;2.70;;;2.10;;
7253;SDS011;4060;49.186;9.226;2023-10-19T15:44:19;3.50;;;2.20;;
7253;SDS011;4060;49.186;9.226;2023-10-19T15:46:48;2.65;;;1.98;;